Terminal Aerodrome Forecast
Issued by NWS Mt. Holly, NJ

Current Version | Previous Version | Text Only | Print | Product List | Glossary On
Versions: 1 2 3 4 5 6 7 8 9 10 11 12 13 14 15 16 17 18 19 20 21 22 23 24 25 26 27
000
FTUS41 KPHI 241345 AAB
TAFPHL
TAF AMD
KPHL 241345Z 2414/2518 21013G20KT P6SM SCT100 BKN200
      TEMPO 2416/2418 6SM -RA OVC050
     FM250000 22008KT P6SM BKN090
     FM250300 24006KT P6SM BKN150
     FM251500 26008KT P6SM BKN050=

USA.gov is the U.S. government's official web portal to all federal, state and local government web resources and services.